createdAt,value
2022-12-20T00:02:04.389Z,1.51
2022-12-20T00:04:34.826Z,1.46
2022-12-20T00:07:02.726Z,1.10
2022-12-20T00:09:30.302Z,1.37
2022-12-20T00:11:58.656Z,1.17
2022-12-20T00:14:26.183Z,1.05
2022-12-20T00:16:53.773Z,1.31
2022-12-20T00:19:22.739Z,1.59
2022-12-20T00:21:50.766Z,1.35
2022-12-20T00:24:25.613Z,1.76
2022-12-20T00:26:54.519Z,1.95
2022-12-20T00:29:22.936Z,1.55
2022-12-20T00:31:50.571Z,1.37
2022-12-20T00:34:19.930Z,1.30
2022-12-20T00:36:48.420Z,1.35
2022-12-20T00:39:16.713Z,1.32
2022-12-20T00:41:46.302Z,1.33
2022-12-20T00:44:14.693Z,1.62
2022-12-20T00:46:43.521Z,1.63
2022-12-20T00:49:11.656Z,1.52
2022-12-20T00:51:39.548Z,1.43
2022-12-20T00:54:07.080Z,1.09
2022-12-20T00:56:34.887Z,1.62
2022-12-20T00:59:02.537Z,1.77
2022-12-20T01:01:34.482Z,1.55
2022-12-20T01:04:03.071Z,1.18
2022-12-20T01:06:32.500Z,1.81
2022-12-20T01:09:01.717Z,1.53
2022-12-20T01:11:32.779Z,1.59
2022-12-20T01:14:04.320Z,1.79
2022-12-20T01:16:39.420Z,1.84
2022-12-20T01:19:08.247Z,1.80
2022-12-20T01:21:36.259Z,1.77
2022-12-20T01:24:04.920Z,1.73
2022-12-20T01:26:32.444Z,1.42
2022-12-20T01:29:01.035Z,1.15
2022-12-20T01:31:29.953Z,1.54
2022-12-20T01:33:57.906Z,1.36
2022-12-20T01:36:34.758Z,1.59
2022-12-20T01:39:05.997Z,1.86
2022-12-20T01:41:35.691Z,1.71
2022-12-20T01:44:06.713Z,1.42
2022-12-20T01:46:36.581Z,1.50
2022-12-20T01:49:09.058Z,1.59
2022-12-20T01:51:40.774Z,1.76
2022-12-20T01:54:12.028Z,1.50
2022-12-20T01:56:42.097Z,1.75
2022-12-20T01:59:09.727Z,1.25
2022-12-20T02:01:37.901Z,1.53
2022-12-20T02:04:06.020Z,1.67
2022-12-20T02:06:33.726Z,1.52
2022-12-20T02:09:04.016Z,0.84
2022-12-20T02:12:16.272Z,0.95
2022-12-20T02:15:41.314Z,1.73
2022-12-20T02:18:13.818Z,1.12
2022-12-20T02:21:03.961Z,1.36
2022-12-20T02:24:00.147Z,1.36
2022-12-20T02:26:43.798Z,1.43
2022-12-20T02:30:04.567Z,1.59
2022-12-20T02:32:50.721Z,1.32
2022-12-20T02:35:25.163Z,1.88
2022-12-20T02:37:56.333Z,1.86
2022-12-20T02:40:28.311Z,1.70
2022-12-20T02:42:59.968Z,1.76
2022-12-20T02:45:34.106Z,1.88
2022-12-20T02:48:08.543Z,1.77
2022-12-20T02:50:47.521Z,1.92
2022-12-20T02:53:16.481Z,1.39
2022-12-20T02:55:48.871Z,1.47
2022-12-20T02:58:26.809Z,1.56
2022-12-20T03:00:56.880Z,1.53
2022-12-20T03:03:26.475Z,1.12
2022-12-20T03:05:55.981Z,1.26
2022-12-20T03:08:24.780Z,1.12
2022-12-20T03:10:54.789Z,0.78
2022-12-20T03:13:25.141Z,1.50
2022-12-20T03:15:54.311Z,1.59
2022-12-20T03:18:23.085Z,1.22
2022-12-20T03:20:51.025Z,1.17
2022-12-20T03:23:19.764Z,1.57
2022-12-20T03:25:47.632Z,1.36
2022-12-20T03:28:16.892Z,1.24
2022-12-20T03:30:46.887Z,1.21
2022-12-20T03:33:26.108Z,1.50
2022-12-20T03:36:23.456Z,1.21
2022-12-20T03:39:11.110Z,0.84
2022-12-20T03:42:00.341Z,1.43
2022-12-20T03:44:29.287Z,1.77
2022-12-20T03:46:57.822Z,1.91
2022-12-20T03:49:42.279Z,1.88
2022-12-20T03:52:12.758Z,1.79
2022-12-20T03:54:44.842Z,1.19
2022-12-20T03:57:28.486Z,1.36
2022-12-20T03:59:57.817Z,1.91
2022-12-20T04:02:26.461Z,1.85
2022-12-20T04:04:56.507Z,1.76
2022-12-20T04:07:24.570Z,1.62
2022-12-20T04:09:53.454Z,1.82
2022-12-20T04:12:24.390Z,1.97
2022-12-20T04:14:55.697Z,1.72
2022-12-20T04:17:26.239Z,1.91
2022-12-20T04:19:55.354Z,1.90
2022-12-20T04:22:24.924Z,1.53
2022-12-20T04:24:53.461Z,1.64
2022-12-20T04:27:21.379Z,1.58
2022-12-20T04:29:52.239Z,1.68
2022-12-20T04:32:22.519Z,1.59
2022-12-20T04:34:50.982Z,1.91
2022-12-20T04:37:19.479Z,1.51
2022-12-20T04:39:49.747Z,1.71
2022-12-20T04:42:18.425Z,1.66
2022-12-20T04:44:46.431Z,1.34
2022-12-20T04:47:15.158Z,1.63
2022-12-20T04:49:44.073Z,1.47
2022-12-20T04:52:33.919Z,1.18
2022-12-20T04:55:02.513Z,1.44
2022-12-20T04:57:31.676Z,1.64
2022-12-20T05:00:00.028Z,1.91
2022-12-20T05:02:29.034Z,2.04
2022-12-20T05:04:58.269Z,1.81
2022-12-20T05:07:26.852Z,1.85
2022-12-20T05:09:55.854Z,2.05
2022-12-20T05:12:23.969Z,1.95
2022-12-20T05:15:00.120Z,1.89
2022-12-20T05:17:28.324Z,1.83
2022-12-20T05:19:58.844Z,1.73
2022-12-20T05:22:56.942Z,1.87
2022-12-20T05:25:45.931Z,1.75
2022-12-20T05:28:15.703Z,1.94
2022-12-20T05:30:43.378Z,2.00
2022-12-20T05:33:12.921Z,2.25
2022-12-20T05:35:43.161Z,2.19
2022-12-20T05:38:11.946Z,1.92
2022-12-20T05:40:40.581Z,2.02
2022-12-20T05:43:11.882Z,2.05
2022-12-20T05:45:40.133Z,1.83
2022-12-20T05:52:17.911Z,1.96
2022-12-20T05:54:49.005Z,1.88
2022-12-20T05:57:18.028Z,1.49
2022-12-20T05:59:49.988Z,1.63
2022-12-20T06:02:43.890Z,1.93
2022-12-20T06:05:13.279Z,1.72
2022-12-20T06:07:42.868Z,1.69
2022-12-20T06:10:11.789Z,1.29
2022-12-20T06:12:40.856Z,1.63
2022-12-20T06:15:10.942Z,1.79
2022-12-20T06:17:41.083Z,1.43
2022-12-20T06:20:09.570Z,1.54
2022-12-20T06:22:41.072Z,1.60
2022-12-20T06:25:17.823Z,1.62
2022-12-20T06:27:47.184Z,1.52
2022-12-20T06:30:16.753Z,1.96
2022-12-20T06:32:46.274Z,1.88
2022-12-20T06:35:15.200Z,1.81
2022-12-20T06:37:44.294Z,1.71
2022-12-20T06:40:15.748Z,1.59
2022-12-20T06:42:46.039Z,1.66
2022-12-20T06:45:16.501Z,1.72
2022-12-20T06:50:20.355Z,1.65
2022-12-20T06:52:48.442Z,1.44
2022-12-20T06:55:16.953Z,1.64
2022-12-20T06:57:48.557Z,1.86
2022-12-20T07:00:19.934Z,1.46
2022-12-20T07:02:49.424Z,1.43
2022-12-20T07:05:19.033Z,1.45
2022-12-20T07:07:47.728Z,1.40
2022-12-20T07:10:17.794Z,1.11
2022-12-20T07:12:48.480Z,0.94
2022-12-20T07:15:19.845Z,1.59
2022-12-20T07:17:48.700Z,0.95
2022-12-20T07:20:16.858Z,1.08
2022-12-20T07:22:48.933Z,0.72
2022-12-20T07:25:19.868Z,1.33
2022-12-20T07:27:52.792Z,1.57
2022-12-20T07:30:24.023Z,1.24
2022-12-20T07:32:54.134Z,1.60
2022-12-20T07:35:27.064Z,1.40
2022-12-20T07:37:55.880Z,1.31
2022-12-20T07:40:26.342Z,1.75
2022-12-20T07:42:57.234Z,1.68
2022-12-20T07:45:29.420Z,1.69
2022-12-20T07:48:11.316Z,1.78
2022-12-20T07:50:43.863Z,1.91
2022-12-20T07:53:13.033Z,1.58
2022-12-20T07:55:50.534Z,1.67
2022-12-20T07:58:21.858Z,1.62
2022-12-20T08:00:51.098Z,1.82
2022-12-20T08:03:23.123Z,1.90
2022-12-20T08:05:53.902Z,1.89
2022-12-20T08:08:23.991Z,1.85
2022-12-20T08:10:52.552Z,1.72
2022-12-20T08:13:23.368Z,1.46
2022-12-20T08:15:51.971Z,1.66
2022-12-20T08:18:29.865Z,1.33
2022-12-20T08:20:59.171Z,1.54
2022-12-20T08:23:27.142Z,1.36
2022-12-20T08:25:55.637Z,1.59
2022-12-20T08:28:25.318Z,1.90
2022-12-20T08:31:07.927Z,1.83
2022-12-20T08:33:41.945Z,2.23
2022-12-20T08:36:14.149Z,1.87
2022-12-20T08:38:47.296Z,1.91
2022-12-20T08:41:16.583Z,2.26
2022-12-20T08:43:46.288Z,2.29
2022-12-20T08:46:16.031Z,2.41
2022-12-20T08:48:44.188Z,2.31
2022-12-20T08:51:14.472Z,2.56
2022-12-20T08:53:44.053Z,2.52
2022-12-20T08:58:49.211Z,2.23
2022-12-20T09:01:23.001Z,2.14
2022-12-20T09:03:53.604Z,2.61
2022-12-20T09:06:24.089Z,2.51
2022-12-20T09:08:55.838Z,2.49
2022-12-20T09:11:26.162Z,2.85
2022-12-20T09:13:57.829Z,2.98
2022-12-20T09:16:30.814Z,3.16
2022-12-20T09:19:06.734Z,3.07
2022-12-20T09:21:35.998Z,3.49
2022-12-20T09:24:06.878Z,3.78
2022-12-20T09:26:35.731Z,3.30
2022-12-20T09:29:05.572Z,2.97
2022-12-20T09:31:34.189Z,3.10
2022-12-20T09:34:03.381Z,3.12
2022-12-20T09:36:32.248Z,3.05
2022-12-20T09:39:01.018Z,2.84
2022-12-20T09:41:38.345Z,2.82
2022-12-20T09:44:15.286Z,3.57
2022-12-20T09:46:45.701Z,3.24
2022-12-20T09:49:19.880Z,3.03
2022-12-20T09:55:06.771Z,3.14
2022-12-20T09:58:00.100Z,3.55
2022-12-20T10:00:30.354Z,3.92
2022-12-20T10:03:09.853Z,3.97
2022-12-20T10:05:46.411Z,3.68
2022-12-20T10:08:49.991Z,3.79
2022-12-20T10:11:41.987Z,4.23
2022-12-20T10:14:38.986Z,3.73
2022-12-20T10:17:15.757Z,3.69
2022-12-20T10:19:48.110Z,3.95
2022-12-20T10:22:39.825Z,3.85
2022-12-20T10:25:20.957Z,4.29
2022-12-20T10:27:53.849Z,3.88
2022-12-20T10:30:36.793Z,3.89
2022-12-20T10:33:11.681Z,3.99
2022-12-20T10:35:41.432Z,3.99
2022-12-20T10:41:21.487Z,3.89
2022-12-20T10:43:46.128Z,4.21
2022-12-20T10:46:17.058Z,4.20
2022-12-20T10:49:37.930Z,4.26
2022-12-20T10:52:35.251Z,4.18
2022-12-20T10:55:41.857Z,4.49
2022-12-20T10:58:36.942Z,4.63
2022-12-20T11:01:23.217Z,4.77
2022-12-20T11:04:41.305Z,4.94
2022-12-20T11:07:28.890Z,4.21
2022-12-20T11:10:25.277Z,4.11
2022-12-20T11:13:06.453Z,4.48
2022-12-20T11:15:57.953Z,4.57
2022-12-20T11:19:03.863Z,4.59
2022-12-20T11:22:14.059Z,3.98
2022-12-20T11:25:27.858Z,4.14
2022-12-20T11:28:07.901Z,4.32
2022-12-20T11:31:30.016Z,4.27
2022-12-20T11:34:23.716Z,4.75
2022-12-20T11:37:17.165Z,4.23
2022-12-20T11:40:17.112Z,4.48
2022-12-20T11:44:08.082Z,4.79
2022-12-20T11:46:50.099Z,4.71
2022-12-20T11:49:42.731Z,4.52
2022-12-20T11:52:43.928Z,4.26
2022-12-20T11:55:32.734Z,4.43
2022-12-20T12:01:40.673Z,4.68
2022-12-20T12:04:41.824Z,4.82
2022-12-20T12:07:34.498Z,4.43
2022-12-20T12:10:36.317Z,4.59
2022-12-20T12:13:21.744Z,4.62
2022-12-20T12:16:20.810Z,4.76
2022-12-20T12:19:15.029Z,4.59
2022-12-20T12:22:11.722Z,5.10
2022-12-20T12:25:05.045Z,5.12
2022-12-20T12:27:46.998Z,5.00
2022-12-20T12:30:38.743Z,4.59
2022-12-20T12:33:38.808Z,4.70
2022-12-20T12:36:38.088Z,4.73
2022-12-20T12:39:39.228Z,5.16
2022-12-20T12:45:30.687Z,4.82
2022-12-20T12:48:25.868Z,4.92
2022-12-20T12:51:10.465Z,4.79
2022-12-20T12:54:18.309Z,4.49
2022-12-20T12:57:14.669Z,4.40
2022-12-20T13:00:05.739Z,4.59
2022-12-20T13:02:55.784Z,4.42
2022-12-20T13:05:51.430Z,4.28
2022-12-20T13:08:58.620Z,4.61
2022-12-20T13:12:02.508Z,4.56
2022-12-20T13:14:46.231Z,4.49
2022-12-20T13:17:51.995Z,4.28
2022-12-20T13:20:37.914Z,4.41
2022-12-20T13:23:30.418Z,4.43
2022-12-20T13:26:52.392Z,4.30
2022-12-20T13:30:10.894Z,4.59
2022-12-20T13:33:04.756Z,5.01
2022-12-20T13:35:55.649Z,4.61
2022-12-20T13:38:50.833Z,4.78
2022-12-20T13:41:44.421Z,4.71
2022-12-20T13:44:56.151Z,5.21
2022-12-20T13:48:11.121Z,5.12
2022-12-20T13:51:05.735Z,4.78
2022-12-20T13:54:04.134Z,5.43
2022-12-20T13:56:55.634Z,5.07
2022-12-20T13:59:35.876Z,5.21
2022-12-20T14:02:25.184Z,4.97
2022-12-20T14:05:28.820Z,4.82
2022-12-20T14:08:24.833Z,5.12
2022-12-20T14:11:11.481Z,5.06
2022-12-20T14:13:58.299Z,4.99
2022-12-20T14:16:57.696Z,4.70
2022-12-20T14:19:45.233Z,4.73
2022-12-20T14:22:37.947Z,5.03
2022-12-20T14:25:57.083Z,4.99
2022-12-20T14:28:56.969Z,4.93
2022-12-20T14:31:46.774Z,5.00
2022-12-20T14:34:43.119Z,4.93
2022-12-20T14:37:33.121Z,4.98
2022-12-20T14:40:27.792Z,4.36
2022-12-20T14:43:34.034Z,4.85
2022-12-20T14:46:24.199Z,4.60
2022-12-20T14:49:31.711Z,4.66
2022-12-20T14:52:19.789Z,4.89
2022-12-20T14:55:26.934Z,4.83
2022-12-20T14:58:31.899Z,4.46
2022-12-20T15:01:28.724Z,4.56
2022-12-20T15:04:35.696Z,4.96
2022-12-20T15:07:48.792Z,5.18
2022-12-20T15:10:31.596Z,4.88
2022-12-20T15:13:19.919Z,4.78
2022-12-20T15:16:18.802Z,4.79
2022-12-20T15:19:02.145Z,5.17
2022-12-20T15:21:46.930Z,4.86
2022-12-20T15:24:46.119Z,4.78
2022-12-20T15:27:26.955Z,5.00
2022-12-20T15:30:30.878Z,4.71
2022-12-20T15:33:27.141Z,4.81
2022-12-20T15:36:23.704Z,4.85
2022-12-20T15:39:16.700Z,4.57
2022-12-20T15:42:03.632Z,4.86
2022-12-20T15:45:01.006Z,4.74
2022-12-20T15:47:54.707Z,4.76
2022-12-20T15:50:57.677Z,4.81
2022-12-20T15:53:30.593Z,4.73
2022-12-20T15:56:24.873Z,4.19
2022-12-20T16:01:46.029Z,4.07
2022-12-20T16:04:23.025Z,4.22
2022-12-20T16:07:07.467Z,4.17
2022-12-20T16:09:48.695Z,4.27
2022-12-20T16:12:46.679Z,4.35
2022-12-20T16:15:37.091Z,4.29
2022-12-20T16:18:20.065Z,4.60
2022-12-20T16:21:08.595Z,4.35
2022-12-20T16:28:14.621Z,3.80
2022-12-20T16:33:51.675Z,3.96
2022-12-20T16:36:38.467Z,3.90
2022-12-20T16:39:23.087Z,3.44
2022-12-20T16:42:24.678Z,3.68
2022-12-20T16:45:21.851Z,4.04
2022-12-20T16:48:14.019Z,4.04
2022-12-20T16:51:24.247Z,4.12
2022-12-20T16:54:20.046Z,4.39
2022-12-20T16:57:03.923Z,4.12
2022-12-20T16:59:51.917Z,4.07
2022-12-20T17:02:45.995Z,4.15
2022-12-20T17:05:29.887Z,4.14
2022-12-20T17:11:16.012Z,3.64
2022-12-20T17:13:54.335Z,3.57
2022-12-20T17:16:26.199Z,3.85
2022-12-20T17:24:34.096Z,3.47
2022-12-20T17:27:04.366Z,3.70
2022-12-20T17:35:00.642Z,3.98
2022-12-20T17:37:44.815Z,3.86
2022-12-20T17:40:22.720Z,4.18
2022-12-20T17:42:51.916Z,4.14
2022-12-20T17:45:30.642Z,3.85
2022-12-20T17:47:59.824Z,4.14
2022-12-20T17:53:13.900Z,4.29
2022-12-20T17:55:42.917Z,4.15
2022-12-20T17:58:12.353Z,3.97
2022-12-20T18:00:46.974Z,4.09
2022-12-20T18:03:53.502Z,3.97
2022-12-20T18:08:58.966Z,4.08
2022-12-20T18:11:32.857Z,4.24
2022-12-20T18:14:02.530Z,4.06
2022-12-20T18:16:39.869Z,4.17
2022-12-20T18:19:21.248Z,3.89
2022-12-20T18:21:55.617Z,3.48
2022-12-20T18:24:30.705Z,3.91
2022-12-20T18:27:10.072Z,3.68
2022-12-20T18:29:45.603Z,4.16
2022-12-20T18:32:23.939Z,4.05
2022-12-20T18:35:17.102Z,3.82
2022-12-20T18:38:01.879Z,3.13
2022-12-20T18:40:30.181Z,3.21
2022-12-20T18:43:06.586Z,3.17
2022-12-20T18:45:46.744Z,3.29
2022-12-20T18:48:20.820Z,3.23
2022-12-20T18:50:48.831Z,3.68
2022-12-20T18:53:24.998Z,3.51
2022-12-20T18:56:04.199Z,3.49
2022-12-20T18:58:36.455Z,3.48
2022-12-20T19:01:23.238Z,3.67
2022-12-20T19:06:43.936Z,3.72
2022-12-20T19:09:23.722Z,3.80
2022-12-20T19:11:58.993Z,3.73
2022-12-20T19:14:40.834Z,3.85
2022-12-20T19:17:23.106Z,3.81
2022-12-20T19:20:07.997Z,3.68
2022-12-20T19:22:44.525Z,3.85
